sensor_id;sensor_type;location;lat;lon;timestamp;pressure;altitude;pressure_sealevel;temperature;humidity
55424;BME280;41294;42.666;23.350;2023-08-06T00:01:24;93820.59;;;21.04;100.00
55424;BME280;41294;42.666;23.350;2023-08-06T00:03:50;93812.75;;;21.14;100.00
55424;BME280;41294;42.666;23.350;2023-08-06T00:06:16;93829.59;;;20.79;100.00
55424;BME280;41294;42.666;23.350;2023-08-06T00:08:41;93818.03;;;20.84;100.00
55424;BME280;41294;42.666;23.350;2023-08-06T00:11:07;93816.44;;;20.96;100.00
55424;BME280;41294;42.666;23.350;2023-08-06T00:13:32;93825.44;;;21.13;100.00
55424;BME280;41294;42.666;23.350;2023-08-06T00:16:13;93835.63;;;21.30;100.00
55424;BME280;41294;42.666;23.350;2023-08-06T00:18:39;93811.19;;;21.26;100.00
55424;BME280;41294;42.666;23.350;2023-08-06T00:21:05;93799.75;;;21.18;100.00
55424;BME280;41294;42.666;23.350;2023-08-06T00:23:30;93807.19;;;20.97;100.00
55424;BME280;41294;42.666;23.350;2023-08-06T00:25:56;93811.16;;;20.68;100.00
55424;BME280;41294;42.666;23.350;2023-08-06T00:28:21;93815.25;;;20.69;100.00
55424;BME280;41294;42.666;23.350;2023-08-06T00:30:53;93805.78;;;21.03;100.00
55424;BME280;41294;42.666;23.350;2023-08-06T00:33:18;93803.28;;;21.13;100.00
55424;BME280;41294;42.666;23.350;2023-08-06T00:35:44;93797.94;;;21.20;100.00
55424;BME280;41294;42.666;23.350;2023-08-06T00:38:09;93802.53;;;20.90;100.00
55424;BME280;41294;42.666;23.350;2023-08-06T00:40:34;93791.47;;;20.93;100.00
55424;BME280;41294;42.666;23.350;2023-08-06T00:43:00;93793.25;;;20.91;100.00
55424;BME280;41294;42.666;23.350;2023-08-06T00:45:26;93800.78;;;21.15;100.00
55424;BME280;41294;42.666;23.350;2023-08-06T00:47:52;93795.78;;;21.11;100.00
55424;BME280;41294;42.666;23.350;2023-08-06T00:50:18;93783.66;;;21.25;100.00
55424;BME280;41294;42.666;23.350;2023-08-06T00:52:46;93782.19;;;20.94;100.00
55424;BME280;41294;42.666;23.350;2023-08-06T00:55:11;93784.72;;;21.15;100.00
55424;BME280;41294;42.666;23.350;2023-08-06T00:57:37;93788.31;;;21.10;100.00
55424;BME280;41294;42.666;23.350;2023-08-06T01:00:02;93769.56;;;21.10;100.00
55424;BME280;41294;42.666;23.350;2023-08-06T01:02:29;93774.72;;;21.08;100.00
55424;BME280;41294;42.666;23.350;2023-08-06T01:04:54;93767.41;;;21.01;100.00
55424;BME280;41294;42.666;23.350;2023-08-06T01:12:54;93743.16;;;21.14;100.00
55424;BME280;41294;42.666;23.350;2023-08-06T01:15:28;93739.94;;;21.23;100.00
55424;BME280;41294;42.666;23.350;2023-08-06T01:17:54;93754.38;;;21.20;100.00
55424;BME280;41294;42.666;23.350;2023-08-06T01:20:20;93761.19;;;21.21;100.00
55424;BME280;41294;42.666;23.350;2023-08-06T01:22:45;93734.72;;;20.95;100.00
55424;BME280;41294;42.666;23.350;2023-08-06T01:25:15;93723.69;;;20.91;100.00
55424;BME280;41294;42.666;23.350;2023-08-06T01:27:48;93721.94;;;21.23;100.00
55424;BME280;41294;42.666;23.350;2023-08-06T01:30:26;93724.97;;;21.35;100.00
55424;BME280;41294;42.666;23.350;2023-08-06T01:32:58;93724.06;;;21.32;100.00
55424;BME280;41294;42.666;23.350;2023-08-06T01:35:25;93726.75;;;21.32;100.00
55424;BME280;41294;42.666;23.350;2023-08-06T01:37:52;93729.06;;;21.36;100.00
55424;BME280;41294;42.666;23.350;2023-08-06T01:40:17;93720.47;;;21.30;100.00
55424;BME280;41294;42.666;23.350;2023-08-06T01:42:43;93712.63;;;21.47;100.00
55424;BME280;41294;42.666;23.350;2023-08-06T01:45:09;93716.03;;;21.40;100.00
55424;BME280;41294;42.666;23.350;2023-08-06T01:47:35;93714.41;;;21.44;100.00
55424;BME280;41294;42.666;23.350;2023-08-06T01:50:01;93716.22;;;21.56;100.00
55424;BME280;41294;42.666;23.350;2023-08-06T01:52:27;93709.25;;;21.53;100.00
55424;BME280;41294;42.666;23.350;2023-08-06T01:54:52;93720.16;;;21.55;100.00
55424;BME280;41294;42.666;23.350;2023-08-06T01:57:17;93721.94;;;21.38;100.00
55424;BME280;41294;42.666;23.350;2023-08-06T01:59:43;93721.19;;;21.38;100.00
55424;BME280;41294;42.666;23.350;2023-08-06T02:02:08;93714.25;;;21.27;100.00
55424;BME280;41294;42.666;23.350;2023-08-06T02:04:34;93707.47;;;21.34;100.00
55424;BME280;41294;42.666;23.350;2023-08-06T02:06:59;93702.66;;;21.25;100.00
55424;BME280;41294;42.666;23.350;2023-08-06T02:09:25;93700.13;;;21.34;100.00
55424;BME280;41294;42.666;23.350;2023-08-06T02:11:50;93696.56;;;21.32;100.00
55424;BME280;41294;42.666;23.350;2023-08-06T02:14:16;93699.44;;;21.11;100.00
55424;BME280;41294;42.666;23.350;2023-08-06T02:16:41;93704.78;;;21.11;100.00
55424;BME280;41294;42.666;23.350;2023-08-06T02:19:06;93716.03;;;21.02;100.00
55424;BME280;41294;42.666;23.350;2023-08-06T02:21:32;93712.25;;;20.90;100.00
55424;BME280;41294;42.666;23.350;2023-08-06T02:23:57;93730.47;;;20.92;100.00
55424;BME280;41294;42.666;23.350;2023-08-06T02:26:22;93743.66;;;21.05;100.00
55424;BME280;41294;42.666;23.350;2023-08-06T02:28:48;93734.53;;;20.93;100.00
55424;BME280;41294;42.666;23.350;2023-08-06T02:31:13;93727.28;;;21.16;100.00
55424;BME280;41294;42.666;23.350;2023-08-06T02:33:39;93708.06;;;20.67;100.00
55424;BME280;41294;42.666;23.350;2023-08-06T02:36:04;93722.53;;;20.71;100.00
55424;BME280;41294;42.666;23.350;2023-08-06T02:38:30;93721.53;;;20.97;100.00
55424;BME280;41294;42.666;23.350;2023-08-06T02:40:56;93741.31;;;20.86;100.00
55424;BME280;41294;42.666;23.350;2023-08-06T02:43:22;93756.72;;;20.58;100.00
55424;BME280;41294;42.666;23.350;2023-08-06T02:45:47;93762.13;;;20.73;100.00
55424;BME280;41294;42.666;23.350;2023-08-06T02:48:12;93761.13;;;20.91;100.00
55424;BME280;41294;42.666;23.350;2023-08-06T02:50:41;93752.53;;;20.85;100.00
55424;BME280;41294;42.666;23.350;2023-08-06T02:53:07;93726.34;;;20.91;100.00
55424;BME280;41294;42.666;23.350;2023-08-06T02:55:34;93718.94;;;20.69;100.00
55424;BME280;41294;42.666;23.350;2023-08-06T02:58:02;93723.81;;;20.28;100.00
55424;BME280;41294;42.666;23.350;2023-08-06T03:00:28;93708.91;;;19.97;100.00
55424;BME280;41294;42.666;23.350;2023-08-06T03:02:53;93704.00;;;19.88;100.00
55424;BME280;41294;42.666;23.350;2023-08-06T03:05:19;93703.25;;;20.15;100.00
55424;BME280;41294;42.666;23.350;2023-08-06T03:07:44;93702.84;;;20.39;100.00
55424;BME280;41294;42.666;23.350;2023-08-06T03:10:10;93688.41;;;20.42;100.00
55424;BME280;41294;42.666;23.350;2023-08-06T03:12:35;93675.31;;;20.16;100.00
55424;BME280;41294;42.666;23.350;2023-08-06T03:15:01;93676.38;;;20.13;100.00
55424;BME280;41294;42.666;23.350;2023-08-06T03:17:26;93697.25;;;20.30;100.00
55424;BME280;41294;42.666;23.350;2023-08-06T03:19:52;93683.94;;;20.37;100.00
55424;BME280;41294;42.666;23.350;2023-08-06T03:22:17;93687.34;;;20.45;100.00
55424;BME280;41294;42.666;23.350;2023-08-06T03:24:42;93672.91;;;20.48;100.00
55424;BME280;41294;42.666;23.350;2023-08-06T03:27:08;93689.06;;;20.28;100.00
55424;BME280;41294;42.666;23.350;2023-08-06T03:29:33;93713.84;;;20.28;100.00
55424;BME280;41294;42.666;23.350;2023-08-06T03:31:58;93728.78;;;20.24;100.00
55424;BME280;41294;42.666;23.350;2023-08-06T03:34:24;93729.47;;;20.17;100.00
55424;BME280;41294;42.666;23.350;2023-08-06T03:36:49;93737.97;;;20.43;100.00
55424;BME280;41294;42.666;23.350;2023-08-06T03:39:14;93739.78;;;20.48;100.00
55424;BME280;41294;42.666;23.350;2023-08-06T03:41:40;93719.91;;;20.29;100.00
55424;BME280;41294;42.666;23.350;2023-08-06T03:44:05;93698.41;;;20.06;100.00
55424;BME280;41294;42.666;23.350;2023-08-06T03:46:31;93721.88;;;20.28;100.00
55424;BME280;41294;42.666;23.350;2023-08-06T03:49:00;93721.59;;;20.54;100.00
55424;BME280;41294;42.666;23.350;2023-08-06T03:51:26;93724.50;;;20.71;100.00
55424;BME280;41294;42.666;23.350;2023-08-06T03:53:51;93734.28;;;20.61;100.00
55424;BME280;41294;42.666;23.350;2023-08-06T03:56:17;93748.00;;;20.58;100.00
55424;BME280;41294;42.666;23.350;2023-08-06T03:58:42;93748.06;;;20.30;100.00
55424;BME280;41294;42.666;23.350;2023-08-06T04:01:07;93745.41;;;20.02;100.00
55424;BME280;41294;42.666;23.350;2023-08-06T04:03:33;93750.44;;;20.05;100.00
55424;BME280;41294;42.666;23.350;2023-08-06T04:05:59;93764.44;;;20.26;100.00
55424;BME280;41294;42.666;23.350;2023-08-06T04:08:24;93773.69;;;20.25;100.00
55424;BME280;41294;42.666;23.350;2023-08-06T04:10:52;93771.91;;;20.28;100.00
55424;BME280;41294;42.666;23.350;2023-08-06T04:13:17;93767.34;;;20.36;100.00
55424;BME280;41294;42.666;23.350;2023-08-06T04:15:43;93753.91;;;19.93;100.00
55424;BME280;41294;42.666;23.350;2023-08-06T04:18:08;93742.16;;;20.24;100.00
55424;BME280;41294;42.666;23.350;2023-08-06T04:20:34;93738.72;;;20.59;100.00
55424;BME280;41294;42.666;23.350;2023-08-06T04:22:59;93741.50;;;20.81;100.00
55424;BME280;41294;42.666;23.350;2023-08-06T04:25:30;93733.28;;;20.94;100.00
55424;BME280;41294;42.666;23.350;2023-08-06T04:27:56;93732.63;;;21.01;100.00
55424;BME280;41294;42.666;23.350;2023-08-06T04:30:21;93737.97;;;21.16;100.00
55424;BME280;41294;42.666;23.350;2023-08-06T04:32:46;93736.22;;;21.26;100.00
55424;BME280;41294;42.666;23.350;2023-08-06T04:35:12;93731.19;;;21.30;100.00
55424;BME280;41294;42.666;23.350;2023-08-06T04:37:37;93720.69;;;21.39;100.00
55424;BME280;41294;42.666;23.350;2023-08-06T04:40:03;93713.34;;;21.25;100.00
55424;BME280;41294;42.666;23.350;2023-08-06T04:42:28;93713.00;;;21.36;100.00
55424;BME280;41294;42.666;23.350;2023-08-06T04:44:54;93710.84;;;21.42;100.00
55424;BME280;41294;42.666;23.350;2023-08-06T04:47:19;93697.81;;;21.38;100.00
55424;BME280;41294;42.666;23.350;2023-08-06T04:49:44;93691.56;;;21.51;100.00
55424;BME280;41294;42.666;23.350;2023-08-06T04:52:10;93674.41;;;21.39;100.00
55424;BME280;41294;42.666;23.350;2023-08-06T04:54:35;93682.31;;;21.37;100.00
55424;BME280;41294;42.666;23.350;2023-08-06T04:57:00;93670.50;;;21.40;100.00
55424;BME280;41294;42.666;23.350;2023-08-06T04:59:26;93666.56;;;21.55;100.00
55424;BME280;41294;42.666;23.350;2023-08-06T05:01:51;93664.34;;;21.91;100.00
55424;BME280;41294;42.666;23.350;2023-08-06T05:04:17;93667.94;;;21.86;100.00
55424;BME280;41294;42.666;23.350;2023-08-06T05:06:42;93667.38;;;21.95;100.00
55424;BME280;41294;42.666;23.350;2023-08-06T05:09:07;93671.63;;;21.98;100.00
55424;BME280;41294;42.666;23.350;2023-08-06T05:11:33;93678.28;;;21.97;100.00
55424;BME280;41294;42.666;23.350;2023-08-06T05:13:58;93680.06;;;21.95;100.00
55424;BME280;41294;42.666;23.350;2023-08-06T05:16:24;93688.03;;;22.17;100.00
55424;BME280;41294;42.666;23.350;2023-08-06T05:18:49;93686.75;;;22.33;100.00
55424;BME280;41294;42.666;23.350;2023-08-06T05:21:14;93692.13;;;22.33;100.00
55424;BME280;41294;42.666;23.350;2023-08-06T05:23:41;93694.72;;;22.80;100.00
55424;BME280;41294;42.666;23.350;2023-08-06T05:26:07;93673.84;;;23.85;94.34
55424;BME280;41294;42.666;23.350;2023-08-06T05:28:32;93673.19;;;23.60;94.67
55424;BME280;41294;42.666;23.350;2023-08-06T05:30:58;93676.06;;;23.79;93.45
55424;BME280;41294;42.666;23.350;2023-08-06T05:33:23;93683.47;;;24.82;89.71
55424;BME280;41294;42.666;23.350;2023-08-06T05:35:49;93680.50;;;25.69;84.19
55424;BME280;41294;42.666;23.350;2023-08-06T05:38:16;93680.13;;;26.48;80.17
55424;BME280;41294;42.666;23.350;2023-08-06T05:40:42;93668.75;;;26.98;78.84
55424;BME280;41294;42.666;23.350;2023-08-06T05:43:08;93665.22;;;26.96;76.54
55424;BME280;41294;42.666;23.350;2023-08-06T05:45:33;93656.97;;;27.03;76.92
55424;BME280;41294;42.666;23.350;2023-08-06T05:47:59;93657.94;;;27.08;77.01
55424;BME280;41294;42.666;23.350;2023-08-06T05:50:24;93663.06;;;27.44;75.48
55424;BME280;41294;42.666;23.350;2023-08-06T05:52:50;93668.47;;;27.13;74.78
55424;BME280;41294;42.666;23.350;2023-08-06T05:55:15;93662.72;;;27.49;73.50
55424;BME280;41294;42.666;23.350;2023-08-06T05:57:40;93668.97;;;28.03;67.38
55424;BME280;41294;42.666;23.350;2023-08-06T06:00:07;93670.75;;;28.74;65.31
55424;BME280;41294;42.666;23.350;2023-08-06T06:02:32;93678.28;;;28.64;63.35
55424;BME280;41294;42.666;23.350;2023-08-06T06:04:58;93676.47;;;28.57;64.26
55424;BME280;41294;42.666;23.350;2023-08-06T06:07:23;93674.59;;;29.04;63.87
55424;BME280;41294;42.666;23.350;2023-08-06T06:09:49;93673.13;;;28.80;62.80
55424;BME280;41294;42.666;23.350;2023-08-06T06:12:14;93676.28;;;29.43;60.14
55424;BME280;41294;42.666;23.350;2023-08-06T06:14:39;93691.38;;;29.46;58.65
55424;BME280;41294;42.666;23.350;2023-08-06T06:17:05;93695.59;;;29.72;58.04
55424;BME280;41294;42.666;23.350;2023-08-06T06:19:30;93694.19;;;29.48;58.95
55424;BME280;41294;42.666;23.350;2023-08-06T06:21:56;93706.59;;;29.51;59.75
55424;BME280;41294;42.666;23.350;2023-08-06T06:24:23;93713.00;;;30.14;56.02
55424;BME280;41294;42.666;23.350;2023-08-06T06:26:48;93718.06;;;30.20;54.96
55424;BME280;41294;42.666;23.350;2023-08-06T06:29:13;93708.41;;;30.06;55.07
55424;BME280;41294;42.666;23.350;2023-08-06T06:31:39;93714.38;;;29.45;57.32
55424;BME280;41294;42.666;23.350;2023-08-06T06:34:04;93720.84;;;29.86;56.29
55424;BME280;41294;42.666;23.350;2023-08-06T06:36:29;93727.38;;;30.28;54.98
55424;BME280;41294;42.666;23.350;2023-08-06T06:38:55;93734.50;;;30.58;55.05
55424;BME280;41294;42.666;23.350;2023-08-06T06:41:20;93730.69;;;30.88;53.96
55424;BME280;41294;42.666;23.350;2023-08-06T06:43:46;93739.34;;;31.09;52.97
55424;BME280;41294;42.666;23.350;2023-08-06T06:46:11;93736.09;;;30.50;54.17
55424;BME280;41294;42.666;23.350;2023-08-06T06:48:36;93733.88;;;30.35;54.41
55424;BME280;41294;42.666;23.350;2023-08-06T06:51:02;93739.63;;;30.41;54.92
55424;BME280;41294;42.666;23.350;2023-08-06T06:53:28;93741.81;;;30.92;52.94
55424;BME280;41294;42.666;23.350;2023-08-06T06:55:54;93758.22;;;30.94;53.23
55424;BME280;41294;42.666;23.350;2023-08-06T06:58:19;93756.81;;;30.93;53.70
55424;BME280;41294;42.666;23.350;2023-08-06T07:00:48;93766.78;;;30.41;54.46
55424;BME280;41294;42.666;23.350;2023-08-06T07:03:16;93767.50;;;30.41;55.07
55424;BME280;41294;42.666;23.350;2023-08-06T07:05:43;93775.56;;;30.39;53.19
55424;BME280;41294;42.666;23.350;2023-08-06T07:08:09;93770.28;;;30.66;51.58
55424;BME280;41294;42.666;23.350;2023-08-06T07:10:34;93776.19;;;30.63;50.48
55424;BME280;41294;42.666;23.350;2023-08-06T07:12:59;93766.91;;;30.79;50.58
55424;BME280;41294;42.666;23.350;2023-08-06T07:15:25;93776.56;;;30.93;49.06
55424;BME280;41294;42.666;23.350;2023-08-06T07:17:50;93785.19;;;30.65;50.28
55424;BME280;41294;42.666;23.350;2023-08-06T07:20:16;93780.44;;;30.18;51.97
55424;BME280;41294;42.666;23.350;2023-08-06T07:22:41;93793.19;;;29.03;52.75
55424;BME280;41294;42.666;23.350;2023-08-06T07:25:07;93790.25;;;28.78;53.31
55424;BME280;41294;42.666;23.350;2023-08-06T07:27:33;93787.75;;;29.03;52.11
55424;BME280;41294;42.666;23.350;2023-08-06T07:29:58;93787.41;;;28.76;52.28
55424;BME280;41294;42.666;23.350;2023-08-06T07:32:24;93782.13;;;29.22;51.76
55424;BME280;41294;42.666;23.350;2023-08-06T07:34:50;93796.81;;;28.43;53.43
55424;BME280;41294;42.666;23.350;2023-08-06T07:37:16;93790.00;;;28.53;52.40
55424;BME280;41294;42.666;23.350;2023-08-06T07:39:41;93783.53;;;29.12;50.82
55424;BME280;41294;42.666;23.350;2023-08-06T07:42:08;93784.69;;;29.52;49.99
55424;BME280;41294;42.666;23.350;2023-08-06T07:44:53;93784.09;;;30.11;48.32
55424;BME280;41294;42.666;23.350;2023-08-06T07:47:19;93789.69;;;30.61;47.92
55424;BME280;41294;42.666;23.350;2023-08-06T07:49:45;93777.56;;;31.11;46.95
55424;BME280;41294;42.666;23.350;2023-08-06T07:52:10;93778.91;;;30.99;45.94
55424;BME280;41294;42.666;23.350;2023-08-06T07:54:36;93784.53;;;30.78;46.53
55424;BME280;41294;42.666;23.350;2023-08-06T07:57:01;93770.69;;;31.10;45.64
55424;BME280;41294;42.666;23.350;2023-08-06T07:59:27;93771.50;;;31.13;44.71
55424;BME280;41294;42.666;23.350;2023-08-06T08:01:52;93779.78;;;31.15;45.40
55424;BME280;41294;42.666;23.350;2023-08-06T08:04:17;93777.63;;;31.77;43.97
55424;BME280;41294;42.666;23.350;2023-08-06T08:06:43;93770.44;;;31.70;44.35
55424;BME280;41294;42.666;23.350;2023-08-06T08:09:08;93763.50;;;31.93;44.81
55424;BME280;41294;42.666;23.350;2023-08-06T08:11:34;93756.72;;;31.54;44.20
55424;BME280;41294;42.666;23.350;2023-08-06T08:13:59;93767.41;;;30.76;47.02
55424;BME280;41294;42.666;23.350;2023-08-06T08:16:24;93768.34;;;31.05;46.47
55424;BME280;41294;42.666;23.350;2023-08-06T08:18:50;93766.91;;;30.79;46.45
55424;BME280;41294;42.666;23.350;2023-08-06T08:21:15;93766.78;;;30.52;46.78
55424;BME280;41294;42.666;23.350;2023-08-06T08:23:40;93758.56;;;30.75;46.19
55424;BME280;41294;42.666;23.350;2023-08-06T08:26:07;93768.44;;;30.57;45.60
55424;BME280;41294;42.666;23.350;2023-08-06T08:28:32;93777.16;;;30.92;45.01
55424;BME280;41294;42.666;23.350;2023-08-06T08:30:58;93778.28;;;30.76;45.02
55424;BME280;41294;42.666;23.350;2023-08-06T08:33:23;93766.72;;;31.25;44.28
55424;BME280;41294;42.666;23.350;2023-08-06T08:35:49;93775.28;;;31.58;43.49
55424;BME280;41294;42.666;23.350;2023-08-06T08:38:14;93778.59;;;31.56;43.81
55424;BME280;41294;42.666;23.350;2023-08-06T08:40:45;93767.38;;;31.50;44.02
55424;BME280;41294;42.666;23.350;2023-08-06T08:43:15;93764.28;;;31.69;44.47
55424;BME280;41294;42.666;23.350;2023-08-06T08:45:42;93766.63;;;31.75;44.56
55424;BME280;41294;42.666;23.350;2023-08-06T08:48:10;93776.50;;;32.35;42.86
55424;BME280;41294;42.666;23.350;2023-08-06T08:50:38;93762.00;;;32.17;43.63
55424;BME280;41294;42.666;23.350;2023-08-06T08:53:05;93764.19;;;32.34;43.58
55424;BME280;41294;42.666;23.350;2023-08-06T08:55:31;93765.78;;;32.66;43.13
55424;BME280;41294;42.666;23.350;2023-08-06T08:57:57;93750.69;;;32.09;43.44
55424;BME280;41294;42.666;23.350;2023-08-06T09:00:22;93755.78;;;31.50;44.68
55424;BME280;41294;42.666;23.350;2023-08-06T09:02:47;93752.00;;;31.30;45.27
55424;BME280;41294;42.666;23.350;2023-08-06T09:05:14;93746.13;;;31.22;45.26
55424;BME280;41294;42.666;23.350;2023-08-06T09:07:47;93743.53;;;31.24;45.05
55424;BME280;41294;42.666;23.350;2023-08-06T09:10:14;93733.84;;;30.71;47.37
55424;BME280;41294;42.666;23.350;2023-08-06T09:12:43;93733.75;;;30.33;48.31
55424;BME280;41294;42.666;23.350;2023-08-06T09:15:10;93738.97;;;30.17;48.90
55424;BME280;41294;42.666;23.350;2023-08-06T09:17:36;93731.50;;;29.59;51.10
55424;BME280;41294;42.666;23.350;2023-08-06T09:20:12;93731.09;;;29.30;51.68
55424;BME280;41294;42.666;23.350;2023-08-06T09:22:37;93729.66;;;29.29;50.59
55424;BME280;41294;42.666;23.350;2023-08-06T09:25:03;93717.09;;;29.68;49.74
55424;BME280;41294;42.666;23.350;2023-08-06T09:27:31;93722.28;;;29.41;50.62
55424;BME280;41294;42.666;23.350;2023-08-06T09:29:56;93717.88;;;29.13;51.79
55424;BME280;41294;42.666;23.350;2023-08-06T09:32:21;93713.72;;;28.89;51.47
55424;BME280;41294;42.666;23.350;2023-08-06T09:34:55;93713.78;;;29.35;50.92
55424;BME280;41294;42.666;23.350;2023-08-06T09:37:21;93712.09;;;29.87;49.55
55424;BME280;41294;42.666;23.350;2023-08-06T09:39:47;93706.78;;;30.48;46.56
55424;BME280;41294;42.666;23.350;2023-08-06T09:42:14;93710.00;;;29.97;46.46
55424;BME280;41294;42.666;23.350;2023-08-06T09:44:40;93703.88;;;29.62;47.01
55424;BME280;41294;42.666;23.350;2023-08-06T09:47:06;93706.47;;;29.60;46.65
55424;BME280;41294;42.666;23.350;2023-08-06T09:51:57;93705.81;;;28.93;45.53
55424;BME280;41294;42.666;23.350;2023-08-06T09:54:25;93704.09;;;29.21;46.70
55424;BME280;41294;42.666;23.350;2023-08-06T09:56:52;93711.91;;;29.49;45.98
55424;BME280;41294;42.666;23.350;2023-08-06T09:59:18;93715.53;;;29.65;45.40
55424;BME280;41294;42.666;23.350;2023-08-06T10:01:45;93704.56;;;29.74;45.27
55424;BME280;41294;42.666;23.350;2023-08-06T10:04:11;93717.44;;;29.74;44.77
55424;BME280;41294;42.666;23.350;2023-08-06T10:06:38;93713.31;;;29.50;44.62
55424;BME280;41294;42.666;23.350;2023-08-06T10:09:04;93714.69;;;29.17;45.68
55424;BME280;41294;42.666;23.350;2023-08-06T10:11:30;93718.88;;;28.85;46.50
55424;BME280;41294;42.666;23.350;2023-08-06T10:14:04;93721.53;;;29.06;46.15
55424;BME280;41294;42.666;23.350;2023-08-06T10:16:31;93737.66;;;29.04;46.39
55424;BME280;41294;42.666;23.350;2023-08-06T10:18:58;93724.41;;;29.42;46.10
55424;BME280;41294;42.666;23.350;2023-08-06T10:21:24;93718.03;;;29.49;46.16
55424;BME280;41294;42.666;23.350;2023-08-06T10:23:55;93706.69;;;29.41;46.02
55424;BME280;41294;42.666;23.350;2023-08-06T10:26:20;93717.31;;;29.60;44.87
55424;BME280;41294;42.666;23.350;2023-08-06T10:28:49;93717.78;;;30.03;44.93
55424;BME280;41294;42.666;23.350;2023-08-06T10:31:15;93714.06;;;30.46;43.01
55424;BME280;41294;42.666;23.350;2023-08-06T10:33:45;93723.69;;;30.35;42.07
55424;BME280;41294;42.666;23.350;2023-08-06T10:36:11;93726.41;;;29.88;41.82
55424;BME280;41294;42.666;23.350;2023-08-06T10:38:48;93735.94;;;29.77;43.57
55424;BME280;41294;42.666;23.350;2023-08-06T10:41:27;93733.72;;;29.62;44.45
55424;BME280;41294;42.666;23.350;2023-08-06T10:44:05;93733.00;;;29.62;45.62
55424;BME280;41294;42.666;23.350;2023-08-06T10:46:32;93742.44;;;29.38;47.08
55424;BME280;41294;42.666;23.350;2023-08-06T10:48:58;93748.69;;;29.40;47.40
55424;BME280;41294;42.666;23.350;2023-08-06T10:51:24;93751.53;;;28.87;48.23
55424;BME280;41294;42.666;23.350;2023-08-06T10:53:51;93751.41;;;28.97;48.66
55424;BME280;41294;42.666;23.350;2023-08-06T10:56:17;93756.28;;;28.77;49.97
55424;BME280;41294;42.666;23.350;2023-08-06T10:58:44;93758.59;;;28.60;50.57
55424;BME280;41294;42.666;23.350;2023-08-06T11:01:10;93762.03;;;28.39;50.37
55424;BME280;41294;42.666;23.350;2023-08-06T11:03:37;93759.84;;;28.27;50.89
55424;BME280;41294;42.666;23.350;2023-08-06T11:06:03;93765.00;;;28.23;51.26
55424;BME280;41294;42.666;23.350;2023-08-06T11:08:34;93764.84;;;28.00;51.69
55424;BME280;41294;42.666;23.350;2023-08-06T11:11:13;93763.19;;;27.95;51.86
55424;BME280;41294;42.666;23.350;2023-08-06T11:13:42;93774.06;;;28.06;51.76
55424;BME280;41294;42.666;23.350;2023-08-06T11:16:08;93758.13;;;28.63;50.65
55424;BME280;41294;42.666;23.350;2023-08-06T11:18:34;93754.25;;;28.99;49.84
55424;BME280;41294;42.666;23.350;2023-08-06T11:21:00;93768.44;;;29.20;49.64
55424;BME280;41294;42.666;23.350;2023-08-06T11:23:27;93784.81;;;28.99;49.43
55424;BME280;41294;42.666;23.350;2023-08-06T11:25:54;93788.97;;;28.58;50.49
55424;BME280;41294;42.666;23.350;2023-08-06T11:28:19;93808.91;;;28.21;50.03
55424;BME280;41294;42.666;23.350;2023-08-06T11:30:47;93807.25;;;27.86;51.32
55424;BME280;41294;42.666;23.350;2023-08-06T11:33:12;93803.25;;;28.08;54.98
55424;BME280;41294;42.666;23.350;2023-08-06T11:35:38;93792.81;;;27.93;59.15
55424;BME280;41294;42.666;23.350;2023-08-06T11:38:05;93789.75;;;27.38;60.76
55424;BME280;41294;42.666;23.350;2023-08-06T11:40:32;93791.66;;;26.88;64.55
55424;BME280;41294;42.666;23.350;2023-08-06T11:42:57;93791.38;;;27.03;63.74
55424;BME280;41294;42.666;23.350;2023-08-06T11:45:24;93788.66;;;27.03;64.00
55424;BME280;41294;42.666;23.350;2023-08-06T11:47:51;93780.97;;;26.99;66.32
55424;BME280;41294;42.666;23.350;2023-08-06T11:50:24;93776.47;;;26.83;68.61
55424;BME280;41294;42.666;23.350;2023-08-06T11:52:59;93779.03;;;26.71;68.79
55424;BME280;41294;42.666;23.350;2023-08-06T11:55:26;93774.06;;;26.59;68.13
55424;BME280;41294;42.666;23.350;2023-08-06T11:57:52;93778.19;;;26.60;69.39
55424;BME280;41294;42.666;23.350;2023-08-06T12:00:17;93777.59;;;26.61;69.26
55424;BME280;41294;42.666;23.350;2023-08-06T12:02:46;93783.00;;;26.80;69.27
55424;BME280;41294;42.666;23.350;2023-08-06T12:05:15;93776.03;;;27.05;65.98
55424;BME280;41294;42.666;23.350;2023-08-06T12:07:46;93772.97;;;27.30;63.80
55424;BME280;41294;42.666;23.350;2023-08-06T12:10:13;93777.03;;;27.89;62.80
55424;BME280;41294;42.666;23.350;2023-08-06T12:12:39;93777.56;;;28.39;57.44
55424;BME280;41294;42.666;23.350;2023-08-06T12:15:06;93773.25;;;28.25;56.67
55424;BME280;41294;42.666;23.350;2023-08-06T12:17:32;93764.22;;;28.32;57.22
55424;BME280;41294;42.666;23.350;2023-08-06T12:19:57;93760.22;;;28.53;57.62
55424;BME280;41294;42.666;23.350;2023-08-06T12:22:22;93753.72;;;28.47;57.90
55424;BME280;41294;42.666;23.350;2023-08-06T12:24:48;93751.97;;;28.31;56.26
55424;BME280;41294;42.666;23.350;2023-08-06T12:27:13;93753.00;;;28.46;55.88
55424;BME280;41294;42.666;23.350;2023-08-06T12:29:47;93764.38;;;28.66;54.23
55424;BME280;41294;42.666;23.350;2023-08-06T12:32:15;93750.13;;;28.65;55.36
55424;BME280;41294;42.666;23.350;2023-08-06T12:34:41;93757.50;;;28.53;54.70
55424;BME280;41294;42.666;23.350;2023-08-06T12:37:07;93761.50;;;28.52;54.69
55424;BME280;41294;42.666;23.350;2023-08-06T12:39:36;93759.72;;;28.45;53.31
55424;BME280;41294;42.666;23.350;2023-08-06T12:42:03;93761.13;;;28.46;52.32
55424;BME280;41294;42.666;23.350;2023-08-06T12:44:29;93758.88;;;28.43;51.92
55424;BME280;41294;42.666;23.350;2023-08-06T12:46:54;93749.78;;;28.18;52.43
55424;BME280;41294;42.666;23.350;2023-08-06T12:49:21;93753.38;;;28.11;52.80